createdAt,value
2018-09-20T00:01:19.421Z,99.90
2018-09-20T00:03:48.592Z,99.90
2018-09-20T00:06:17.685Z,99.90
2018-09-20T00:08:47.109Z,99.90
2018-09-20T00:11:16.308Z,99.90
2018-09-20T00:13:45.453Z,99.90
2018-09-20T00:16:14.550Z,99.90
2018-09-20T00:18:43.638Z,99.90
2018-09-20T00:21:12.685Z,99.90
2018-09-20T00:23:41.789Z,99.90
2018-09-20T00:26:10.980Z,99.90
2018-09-20T00:28:40.066Z,99.90
2018-09-20T00:31:09.446Z,99.90
2018-09-20T00:33:38.578Z,99.90
2018-09-20T00:36:07.822Z,99.90
2018-09-20T00:38:36.949Z,99.90
2018-09-20T00:41:06.086Z,99.90
2018-09-20T00:43:35.170Z,99.90
2018-09-20T00:46:04.447Z,99.90
2018-09-20T00:48:33.734Z,99.90
2018-09-20T00:51:02.991Z,99.90
2018-09-20T00:53:32.159Z,99.90
2018-09-20T00:56:01.293Z,99.90
2018-09-20T00:58:30.406Z,99.90
2018-09-20T01:00:59.717Z,99.90
2018-09-20T01:03:28.765Z,99.90
2018-09-20T01:05:57.858Z,99.90
2018-09-20T01:08:27.213Z,99.90
2018-09-20T01:10:56.414Z,99.90
2018-09-20T01:13:25.726Z,99.90
2018-09-20T01:15:54.773Z,99.90
2018-09-20T01:18:23.845Z,99.90
2018-09-20T01:20:53.128Z,99.90
2018-09-20T01:23:22.286Z,99.90
2018-09-20T01:25:51.395Z,99.90
2018-09-20T01:28:20.466Z,99.90
2018-09-20T01:30:49.822Z,99.90
2018-09-20T01:33:18.833Z,99.90
2018-09-20T01:35:48.069Z,99.90
2018-09-20T01:38:17.166Z,99.90
2018-09-20T01:40:46.230Z,99.90
2018-09-20T01:43:15.369Z,99.90
2018-09-20T01:45:44.590Z,99.90
2018-09-20T01:48:13.769Z,99.90
2018-09-20T01:50:42.802Z,99.90
2018-09-20T01:53:11.862Z,99.90
2018-09-20T01:55:41.053Z,99.90
2018-09-20T01:58:10.284Z,99.90
2018-09-20T02:00:39.475Z,99.90
2018-09-20T02:03:08.638Z,99.90
2018-09-20T02:05:37.661Z,99.90
2018-09-20T02:08:07.097Z,99.90
2018-09-20T02:10:36.350Z,99.90
2018-09-20T02:13:05.575Z,99.90
2018-09-20T02:15:34.758Z,99.90
2018-09-20T02:18:03.913Z,99.90
2018-09-20T02:20:33.001Z,99.90
2018-09-20T02:23:02.929Z,99.90
2018-09-20T02:25:32.150Z,99.90
2018-09-20T02:28:01.468Z,99.90
2018-09-20T02:30:30.599Z,99.90
2018-09-20T02:32:59.824Z,99.90
2018-09-20T02:35:29.082Z,99.90
2018-09-20T02:37:58.161Z,99.90
2018-09-20T02:40:27.407Z,99.90
2018-09-20T02:42:56.748Z,99.90
2018-09-20T02:45:25.848Z,99.90
2018-09-20T02:47:54.841Z,99.90
2018-09-20T02:50:23.945Z,99.90
2018-09-20T02:52:53.278Z,99.90
2018-09-20T02:55:22.546Z,99.90
2018-09-20T02:57:51.723Z,99.90
2018-09-20T03:00:20.934Z,99.90
2018-09-20T03:02:50.149Z,99.90
2018-09-20T03:05:19.266Z,99.90
2018-09-20T03:07:48.450Z,99.90
2018-09-20T03:10:17.687Z,99.90
2018-09-20T03:12:46.833Z,99.90
2018-09-20T03:15:16.129Z,99.90
2018-09-20T03:17:45.125Z,99.90
2018-09-20T03:20:14.193Z,99.90
2018-09-20T03:22:43.495Z,99.90
2018-09-20T03:25:12.579Z,99.90
2018-09-20T03:27:41.777Z,99.90
2018-09-20T03:30:10.932Z,99.90
2018-09-20T03:32:40.353Z,99.90
2018-09-20T03:35:09.619Z,99.90
2018-09-20T03:37:39.829Z,99.90
2018-09-20T03:40:09.148Z,99.90
2018-09-20T03:42:38.325Z,99.90
2018-09-20T03:45:07.474Z,99.90
2018-09-20T03:47:36.675Z,99.90
2018-09-20T03:50:06.068Z,99.90
2018-09-20T03:52:35.331Z,99.90
2018-09-20T03:55:05.126Z,99.90
2018-09-20T03:57:34.417Z,99.90
2018-09-20T04:00:03.592Z,99.90
2018-09-20T04:02:32.686Z,99.90
2018-09-20T04:05:01.933Z,99.90
2018-09-20T04:07:31.157Z,99.90
2018-09-20T04:10:00.386Z,99.90
2018-09-20T04:12:29.599Z,99.90
2018-09-20T04:14:59.118Z,99.90
2018-09-20T04:17:28.238Z,99.90
2018-09-20T04:19:57.422Z,99.90
2018-09-20T04:22:26.496Z,99.90
2018-09-20T04:24:55.716Z,99.90
2018-09-20T04:27:24.869Z,99.90
2018-09-20T04:29:54.123Z,99.90
2018-09-20T04:32:23.670Z,99.90
2018-09-20T04:34:52.869Z,99.90
2018-09-20T04:37:21.969Z,99.90
2018-09-20T04:39:51.057Z,99.90
2018-09-20T04:42:20.337Z,99.90
2018-09-20T04:44:49.496Z,99.90
2018-09-20T04:47:18.576Z,99.90
2018-09-20T04:49:48.286Z,99.90
2018-09-20T04:52:17.503Z,99.90
2018-09-20T04:54:46.765Z,99.90
2018-09-20T04:57:15.841Z,99.90
2018-09-20T04:59:45.120Z,99.90
2018-09-20T05:02:14.226Z,99.90
2018-09-20T05:04:43.241Z,99.90
2018-09-20T05:07:12.522Z,99.90
2018-09-20T05:09:41.843Z,99.90
2018-09-20T05:12:11.073Z,99.90
2018-09-20T05:14:40.296Z,99.90
2018-09-20T05:17:09.382Z,99.90
2018-09-20T05:19:38.590Z,99.90
2018-09-20T05:22:07.676Z,99.90
2018-09-20T05:24:36.887Z,99.90
2018-09-20T05:27:06.166Z,99.90
2018-09-20T05:29:35.280Z,99.90
2018-09-20T05:32:04.386Z,99.90
2018-09-20T05:34:33.680Z,99.90
2018-09-20T05:37:02.779Z,99.90
2018-09-20T05:39:31.890Z,99.90
2018-09-20T05:42:01.070Z,99.90
2018-09-20T05:44:30.382Z,99.90
2018-09-20T05:46:59.442Z,99.90
2018-09-20T05:49:28.677Z,99.90
2018-09-20T05:51:58.003Z,99.90
2018-09-20T05:54:27.185Z,99.90
2018-09-20T05:56:56.517Z,99.90
2018-09-20T05:59:25.824Z,99.90
2018-09-20T06:01:55.017Z,99.90
2018-09-20T06:04:24.065Z,99.90
2018-09-20T06:06:53.162Z,99.90
2018-09-20T06:09:22.318Z,99.90
2018-09-20T06:11:51.631Z,99.90
2018-09-20T06:14:20.679Z,99.90
2018-09-20T06:16:49.805Z,99.90
2018-09-20T06:19:18.980Z,99.90
2018-09-20T06:21:48.281Z,99.90
2018-09-20T06:24:17.639Z,99.90
2018-09-20T06:26:46.906Z,99.90
2018-09-20T06:29:16.129Z,99.90
2018-09-20T06:31:45.311Z,99.90
2018-09-20T06:34:14.570Z,99.90
2018-09-20T06:36:44.143Z,99.90
2018-09-20T06:39:13.986Z,99.90
2018-09-20T06:41:43.326Z,99.90
2018-09-20T06:44:12.522Z,99.90
2018-09-20T06:46:41.763Z,99.90
2018-09-20T06:49:11.039Z,99.90
2018-09-20T06:51:40.334Z,99.90
2018-09-20T06:54:09.408Z,99.90
2018-09-20T06:56:38.612Z,99.90
2018-09-20T06:59:08.446Z,99.90
2018-09-20T07:01:37.393Z,99.90
2018-09-20T07:04:06.813Z,99.90
2018-09-20T07:06:35.930Z,99.90
2018-09-20T07:09:08.395Z,99.90
2018-09-20T07:11:37.693Z,99.90
2018-09-20T07:14:07.017Z,99.90
2018-09-20T07:16:36.353Z,99.90
2018-09-20T07:19:05.468Z,99.90
2018-09-20T07:21:34.674Z,99.90
2018-09-20T07:24:03.829Z,99.90
2018-09-20T07:26:32.935Z,99.90
2018-09-20T07:29:02.190Z,99.90
2018-09-20T07:31:31.321Z,99.90
2018-09-20T07:34:00.466Z,99.90
2018-09-20T07:36:29.757Z,99.90
2018-09-20T07:38:59.037Z,99.90
2018-09-20T07:41:28.088Z,99.90
2018-09-20T07:43:57.242Z,99.90
2018-09-20T07:46:26.494Z,99.90
2018-09-20T07:48:55.704Z,99.90
2018-09-20T07:51:24.843Z,99.90
2018-09-20T07:53:54.069Z,99.90
2018-09-20T07:56:23.249Z,99.90
2018-09-20T07:58:52.472Z,99.90
2018-09-20T08:01:21.632Z,99.90
2018-09-20T08:03:50.725Z,99.90
2018-09-20T08:06:19.799Z,99.90
2018-09-20T08:08:49.070Z,99.90
2018-09-20T08:11:18.304Z,99.90
2018-09-20T08:13:47.690Z,99.90
2018-09-20T08:16:16.801Z,99.90
2018-09-20T08:18:46.057Z,99.90
2018-09-20T08:21:15.103Z,99.90
2018-09-20T08:23:44.147Z,99.90
2018-09-20T08:26:13.333Z,99.90
2018-09-20T08:28:42.489Z,99.90
2018-09-20T08:31:11.531Z,99.90
2018-09-20T08:33:40.831Z,99.90
2018-09-20T08:36:09.929Z,99.70
2018-09-20T08:38:39.062Z,98.20
2018-09-20T08:41:08.257Z,96.50
2018-09-20T08:43:37.328Z,94.50
2018-09-20T08:46:06.418Z,90.90
2018-09-20T08:48:35.456Z,87.20
2018-09-20T08:51:04.675Z,81.80
2018-09-20T08:53:33.706Z,77.70
2018-09-20T08:56:02.972Z,74.30
2018-09-20T08:58:32.906Z,72.80
2018-09-20T09:01:04.330Z,70.40
2018-09-20T09:03:33.335Z,65.10
2018-09-20T09:06:03.262Z,61.90
2018-09-20T09:08:32.439Z,59.80
2018-09-20T09:11:01.501Z,58.20
2018-09-20T09:13:30.648Z,55.90
2018-09-20T09:15:59.712Z,55.40
2018-09-20T09:18:28.686Z,53.70
2018-09-20T09:20:57.778Z,53.40
2018-09-20T09:23:26.791Z,51.60
2018-09-20T09:25:55.767Z,51.20
2018-09-20T09:28:25.027Z,50.70
2018-09-20T09:30:54.053Z,50.50
2018-09-20T09:33:23.158Z,48.70
2018-09-20T09:35:52.365Z,47.40
2018-09-20T09:38:21.395Z,47.00
2018-09-20T09:40:50.575Z,47.00
2018-09-20T09:43:19.657Z,47.10
2018-09-20T09:45:48.670Z,46.60
2018-09-20T09:48:17.763Z,44.10
2018-09-20T09:50:46.899Z,44.60
2018-09-20T09:53:16.091Z,43.50
2018-09-20T09:55:45.066Z,44.20
2018-09-20T09:58:14.153Z,44.90
2018-09-20T10:00:43.306Z,45.60
2018-09-20T10:03:12.631Z,45.10
2018-09-20T10:05:42.214Z,45.60
2018-09-20T10:08:11.336Z,43.40
2018-09-20T10:10:40.437Z,44.60
2018-09-20T10:13:09.503Z,44.10
2018-09-20T10:15:38.626Z,43.60
2018-09-20T10:18:07.766Z,41.90
2018-09-20T10:20:36.963Z,40.30
2018-09-20T10:23:06.262Z,41.00
2018-09-20T10:25:35.216Z,38.90
2018-09-20T10:28:04.299Z,38.20
2018-09-20T10:30:33.522Z,37.80
2018-09-20T10:33:02.599Z,36.40
2018-09-20T10:35:31.762Z,36.40
2018-09-20T10:38:00.904Z,36.20
2018-09-20T10:40:30.053Z,36.50
2018-09-20T10:42:59.122Z,37.60
2018-09-20T10:45:28.263Z,35.20
2018-09-20T10:47:57.282Z,36.20
2018-09-20T10:50:26.446Z,36.70
2018-09-20T10:52:55.474Z,34.70
2018-09-20T10:55:24.646Z,35.40
2018-09-20T10:57:53.942Z,33.80
2018-09-20T11:00:24.074Z,32.30
2018-09-20T11:02:53.102Z,31.80
2018-09-20T11:05:22.282Z,32.40
2018-09-20T11:07:51.350Z,31.50
2018-09-20T11:10:20.481Z,32.10
2018-09-20T11:12:49.599Z,31.60
2018-09-20T11:15:18.730Z,32.10
2018-09-20T11:17:47.799Z,33.50
2018-09-20T11:20:16.810Z,34.00
2018-09-20T11:22:46.239Z,33.80
2018-09-20T11:25:15.412Z,33.30
2018-09-20T11:27:44.588Z,33.10
2018-09-20T11:30:13.847Z,33.40
2018-09-20T11:32:43.299Z,34.40
2018-09-20T11:35:12.279Z,33.40
2018-09-20T11:37:41.433Z,32.80
2018-09-20T11:40:10.544Z,33.20
2018-09-20T11:42:39.734Z,33.60
2018-09-20T11:45:08.714Z,33.90
2018-09-20T11:47:37.937Z,33.30
2018-09-20T11:50:07.559Z,32.90
2018-09-20T11:52:36.698Z,33.00
2018-09-20T11:55:05.850Z,33.10
2018-09-20T11:57:35.007Z,32.50
2018-09-20T12:00:04.221Z,32.80
2018-09-20T12:02:33.365Z,33.70
2018-09-20T12:05:02.370Z,35.10
2018-09-20T12:07:31.437Z,34.20
2018-09-20T12:10:01.226Z,34.20
2018-09-20T12:12:30.293Z,34.10
2018-09-20T12:14:59.334Z,35.50
2018-09-20T12:17:28.309Z,32.40
2018-09-20T12:19:57.512Z,32.10
2018-09-20T12:22:26.704Z,32.10
2018-09-20T12:24:55.720Z,33.30
2018-09-20T12:27:24.726Z,32.40
2018-09-20T12:29:53.897Z,32.10
2018-09-20T12:32:23.195Z,33.10
2018-09-20T12:34:52.566Z,33.10
2018-09-20T12:37:25.666Z,31.50
2018-09-20T12:39:54.761Z,31.70
2018-09-20T12:42:24.007Z,32.50
2018-09-20T12:44:53.181Z,32.80
2018-09-20T12:47:22.336Z,32.70
2018-09-20T12:49:51.290Z,32.90
2018-09-20T12:52:21.733Z,34.20
2018-09-20T12:54:50.915Z,35.60
2018-09-20T12:57:20.948Z,36.20
2018-09-20T12:59:51.029Z,36.70
2018-09-20T13:02:20.473Z,36.80
2018-09-20T13:04:49.931Z,36.80
2018-09-20T13:07:19.236Z,36.40
2018-09-20T13:09:48.972Z,36.90
2018-09-20T13:12:18.403Z,37.90
2018-09-20T13:14:47.670Z,38.80
2018-09-20T13:17:16.907Z,39.40
2018-09-20T13:19:46.156Z,39.70
2018-09-20T13:22:15.253Z,40.50
2018-09-20T13:24:45.146Z,42.50
2018-09-20T13:27:14.415Z,42.50
2018-09-20T13:29:45.447Z,42.00
2018-09-20T13:32:16.382Z,42.60
2018-09-20T13:34:47.543Z,43.50
2018-09-20T13:37:17.030Z,42.80
2018-09-20T13:39:46.753Z,43.70
2018-09-20T13:42:16.158Z,44.10
2018-09-20T13:44:45.524Z,44.80
2018-09-20T13:47:15.545Z,45.40
2018-09-20T13:49:44.871Z,45.50
2018-09-20T13:52:14.181Z,45.90
2018-09-20T13:54:43.597Z,45.60
2018-09-20T13:57:13.882Z,45.30
2018-09-20T13:59:43.211Z,46.10
2018-09-20T14:02:12.460Z,46.20
2018-09-20T14:04:41.757Z,45.70
2018-09-20T14:07:11.123Z,46.60
2018-09-20T14:09:40.323Z,46.50
2018-09-20T14:12:09.574Z,46.00
2018-09-20T14:14:38.850Z,46.70
2018-09-20T14:17:08.142Z,46.40
2018-09-20T14:19:37.552Z,46.50
2018-09-20T14:22:06.973Z,47.10
2018-09-20T14:24:36.341Z,45.90
2018-09-20T14:27:05.994Z,46.20
2018-09-20T14:29:35.263Z,46.00
2018-09-20T14:32:04.801Z,46.30
2018-09-20T14:34:34.102Z,46.50
2018-09-20T14:37:03.483Z,45.80
2018-09-20T14:39:32.696Z,46.30
2018-09-20T14:42:01.944Z,47.50
2018-09-20T14:44:31.259Z,47.50
2018-09-20T14:47:00.418Z,47.80
2018-09-20T14:49:29.767Z,48.00
2018-09-20T14:51:59.039Z,47.70
2018-09-20T14:54:28.449Z,49.30
2018-09-20T14:56:57.760Z,49.90
2018-09-20T14:59:27.144Z,49.30
2018-09-20T15:01:56.361Z,49.30
2018-09-20T15:04:25.541Z,49.90
2018-09-20T15:06:54.863Z,49.60
2018-09-20T15:09:24.112Z,49.60
2018-09-20T15:11:53.470Z,49.50
2018-09-20T15:14:22.667Z,50.30
2018-09-20T15:16:51.980Z,50.60
2018-09-20T15:19:21.253Z,50.60
2018-09-20T15:21:50.651Z,50.80
2018-09-20T15:24:19.917Z,51.30
2018-09-20T15:26:49.281Z,51.40
2018-09-20T15:29:19.290Z,51.60
2018-09-20T15:31:48.560Z,51.90
2018-09-20T15:34:17.971Z,52.20
2018-09-20T15:36:47.348Z,52.00
2018-09-20T15:39:17.546Z,52.30
2018-09-20T15:41:46.792Z,52.70
2018-09-20T15:44:16.094Z,52.90
2018-09-20T15:46:46.417Z,53.40
2018-09-20T15:49:16.026Z,53.50
2018-09-20T15:51:45.343Z,53.40
2018-09-20T15:54:14.642Z,53.30
2018-09-20T15:56:43.843Z,53.60
2018-09-20T15:59:13.050Z,54.10
2018-09-20T16:01:42.312Z,54.30
2018-09-20T16:04:11.547Z,54.50
2018-09-20T16:06:40.851Z,54.70
2018-09-20T16:09:11.330Z,55.10
2018-09-20T16:11:40.873Z,55.20
2018-09-20T16:14:10.515Z,55.60
2018-09-20T16:16:39.882Z,55.60
2018-09-20T16:19:09.244Z,56.10
2018-09-20T16:21:38.476Z,56.20
2018-09-20T16:24:07.874Z,56.50
2018-09-20T16:26:37.220Z,56.80
2018-09-20T16:29:19.009Z,56.90
2018-09-20T16:32:05.321Z,57.20
2018-09-20T16:35:48.654Z,57.30
2018-09-20T16:38:27.076Z,57.70
2018-09-20T16:40:58.307Z,57.80
2018-09-20T16:43:28.114Z,58.10
2018-09-20T16:45:57.516Z,58.40
2018-09-20T16:48:26.785Z,58.70
2018-09-20T16:50:56.086Z,58.90
2018-09-20T16:53:25.613Z,58.90
2018-09-20T16:55:55.004Z,59.10
2018-09-20T16:58:24.363Z,59.40
2018-09-20T17:00:53.493Z,59.60
2018-09-20T17:03:22.839Z,59.60
2018-09-20T17:05:52.078Z,60.00
2018-09-20T17:08:22.394Z,60.30
2018-09-20T17:10:52.420Z,60.40
2018-09-20T17:13:22.787Z,60.50
2018-09-20T17:15:52.752Z,60.70
2018-09-20T17:18:23.226Z,60.80
2018-09-20T17:20:53.215Z,61.20
2018-09-20T17:23:22.643Z,61.60
2018-09-20T17:25:52.363Z,61.60
2018-09-20T17:28:24.699Z,62.20
2018-09-20T17:30:54.376Z,62.20
2018-09-20T17:33:27.184Z,62.30
2018-09-20T17:35:58.586Z,62.50
2018-09-20T17:38:29.639Z,62.30
2018-09-20T17:41:19.374Z,62.70
2018-09-20T17:43:54.172Z,63.10
2018-09-20T17:46:24.350Z,63.70
2018-09-20T17:48:58.989Z,64.30
2018-09-20T17:51:28.856Z,65.00
2018-09-20T17:53:58.934Z,65.50
2018-09-20T17:56:29.675Z,66.00
2018-09-20T17:59:00.336Z,66.90
2018-09-20T18:01:29.857Z,67.40
2018-09-20T18:03:59.555Z,67.70
2018-09-20T18:06:29.172Z,68.20
2018-09-20T18:08:58.695Z,69.00
2018-09-20T18:11:29.220Z,69.70
2018-09-20T18:13:58.770Z,70.40
2018-09-20T18:16:28.763Z,71.00
2018-09-20T18:18:58.638Z,71.80
2018-09-20T18:21:29.475Z,72.40
2018-09-20T18:23:59.614Z,73.20
2018-09-20T18:26:30.259Z,74.40
2018-09-20T18:28:59.966Z,75.10
2018-09-20T18:31:31.169Z,74.80
2018-09-20T18:34:01.271Z,75.60
2018-09-20T18:36:30.567Z,76.60
2018-09-20T18:38:59.782Z,77.20
2018-09-20T18:41:29.095Z,78.90
2018-09-20T18:43:58.395Z,79.50
2018-09-20T18:46:27.797Z,80.00
2018-09-20T18:48:57.010Z,80.90
2018-09-20T18:51:31.932Z,81.10
2018-09-20T18:54:01.707Z,82.90
2018-09-20T18:56:34.110Z,83.10
2018-09-20T18:59:04.401Z,83.90
2018-09-20T19:01:34.755Z,84.30
2018-09-20T19:04:04.047Z,85.10
2018-09-20T19:06:34.091Z,86.90
2018-09-20T19:09:03.565Z,87.00
2018-09-20T19:11:32.793Z,87.60
2018-09-20T19:14:02.180Z,88.70
2018-09-20T19:16:31.383Z,90.00
2018-09-20T19:19:01.838Z,90.30
2018-09-20T19:21:31.647Z,90.80
2018-09-20T19:24:01.328Z,91.30
2018-09-20T19:26:31.590Z,91.50
2018-09-20T19:29:00.811Z,92.00
2018-09-20T19:31:30.862Z,92.40
2018-09-20T19:34:42.575Z,93.00
2018-09-20T19:37:11.886Z,93.60
2018-09-20T19:39:41.194Z,94.20
2018-09-20T19:42:10.742Z,94.40
2018-09-20T19:44:40.041Z,94.90
2018-09-20T19:47:09.277Z,96.20
2018-09-20T19:49:38.963Z,96.30
2018-09-20T19:52:08.403Z,96.90
2018-09-20T19:54:37.705Z,97.30
2018-09-20T19:57:07.561Z,97.90
2018-09-20T19:59:36.842Z,98.50
2018-09-20T20:02:06.196Z,99.30
2018-09-20T20:04:35.504Z,99.90
2018-09-20T20:07:05.013Z,99.90
2018-09-20T20:09:34.521Z,99.90
2018-09-20T20:12:06.750Z,99.90
2018-09-20T20:14:36.465Z,99.90
2018-09-20T20:17:06.040Z,99.90
2018-09-20T20:19:35.341Z,99.90
2018-09-20T20:22:04.714Z,99.90
2018-09-20T20:24:34.012Z,99.90
2018-09-20T20:27:03.323Z,99.90
2018-09-20T20:29:33.498Z,99.90
2018-09-20T20:32:02.838Z,99.90
2018-09-20T20:34:32.119Z,99.90
2018-09-20T20:37:02.673Z,99.90
2018-09-20T20:39:33.546Z,99.90
2018-09-20T20:42:03.243Z,99.90
2018-09-20T20:44:32.583Z,99.90
2018-09-20T20:47:01.793Z,99.90
2018-09-20T20:49:31.024Z,99.90
2018-09-20T20:52:00.425Z,99.90
2018-09-20T20:54:29.734Z,99.90
2018-09-20T20:56:59.227Z,99.90
2018-09-20T20:59:28.561Z,99.90
2018-09-20T21:02:09.140Z,99.90
2018-09-20T21:04:38.598Z,99.90
2018-09-20T21:07:08.278Z,99.90
2018-09-20T21:09:37.668Z,99.90
2018-09-20T21:12:18.613Z,99.90
2018-09-20T21:14:48.034Z,99.90
2018-09-20T21:17:17.482Z,99.90
2018-09-20T21:19:46.918Z,99.90
2018-09-20T21:22:16.512Z,99.90
2018-09-20T21:24:45.844Z,99.90
2018-09-20T21:27:15.236Z,99.90
2018-09-20T21:29:44.740Z,99.90
2018-09-20T21:32:14.200Z,99.90
2018-09-20T21:34:43.507Z,99.90
2018-09-20T21:37:12.886Z,99.90
2018-09-20T21:39:42.335Z,99.90
2018-09-20T21:42:11.807Z,99.90
2018-09-20T21:44:41.114Z,99.90
2018-09-20T21:47:10.825Z,99.90
2018-09-20T21:49:40.166Z,99.90
2018-09-20T21:52:09.430Z,99.90
2018-09-20T21:54:38.998Z,99.90
2018-09-20T21:57:08.473Z,99.90
2018-09-20T21:59:37.909Z,99.90
2018-09-20T22:02:07.320Z,99.90
2018-09-20T22:04:36.438Z,99.90
2018-09-20T22:07:05.678Z,99.90
2018-09-20T22:09:35.098Z,99.90
2018-09-20T22:12:04.347Z,99.90
2018-09-20T22:14:33.569Z,99.90
2018-09-20T22:17:02.786Z,99.90
2018-09-20T22:19:32.040Z,99.90
2018-09-20T22:22:01.244Z,99.90
2018-09-20T22:24:30.439Z,99.90
2018-09-20T22:26:59.818Z,99.90
2018-09-20T22:29:29.108Z,99.90
2018-09-20T22:31:58.416Z,99.90
2018-09-20T22:34:27.926Z,99.90
2018-09-20T22:36:57.215Z,99.90
2018-09-20T22:39:26.487Z,99.90
2018-09-20T22:41:55.807Z,99.90
2018-09-20T22:44:25.758Z,99.90
2018-09-20T22:46:55.039Z,99.90
2018-09-20T22:49:24.269Z,99.90
2018-09-20T22:51:53.487Z,99.90
2018-09-20T22:54:22.778Z,99.90
2018-09-20T22:56:52.031Z,99.90
2018-09-20T22:59:21.343Z,99.90
2018-09-20T23:01:50.677Z,99.90
2018-09-20T23:04:20.003Z,99.90
2018-09-20T23:06:49.431Z,99.90
2018-09-20T23:09:19.048Z,99.90
2018-09-20T23:11:48.223Z,99.90
2018-09-20T23:14:17.552Z,99.90
2018-09-20T23:16:46.864Z,99.90
2018-09-20T23:19:16.022Z,99.90
2018-09-20T23:21:45.941Z,99.90
2018-09-20T23:24:15.580Z,99.90
2018-09-20T23:26:46.223Z,99.90
2018-09-20T23:29:15.463Z,99.90
2018-09-20T23:31:44.819Z,99.90
2018-09-20T23:34:14.019Z,99.90
2018-09-20T23:36:43.400Z,99.90
2018-09-20T23:39:13.436Z,99.90
2018-09-20T23:41:42.632Z,99.90
2018-09-20T23:44:11.810Z,99.90
2018-09-20T23:46:41.037Z,99.90
2018-09-20T23:49:10.322Z,99.90
2018-09-20T23:51:39.665Z,99.90
2018-09-20T23:54:08.970Z,99.90
2018-09-20T23:56:38.258Z,99.90
2018-09-20T23:59:07.967Z,99.90
